sensor_id;sensor_type;location;lat;lon;timestamp;P1;durP1;ratioP1;P2;durP2;ratioP2
37495;SDS011;23346;52.088;4.746;2023-04-06T00:00:43;30.17;;;14.33;;
37495;SDS011;23346;52.088;4.746;2023-04-06T00:03:09;29.77;;;13.33;;
37495;SDS011;23346;52.088;4.746;2023-04-06T00:05:35;26.60;;;12.73;;
37495;SDS011;23346;52.088;4.746;2023-04-06T00:08:01;27.83;;;13.03;;
37495;SDS011;23346;52.088;4.746;2023-04-06T00:10:27;31.63;;;12.83;;
37495;SDS011;23346;52.088;4.746;2023-04-06T00:12:54;23.63;;;12.67;;
37495;SDS011;23346;52.088;4.746;2023-04-06T00:15:22;21.70;;;11.47;;
37495;SDS011;23346;52.088;4.746;2023-04-06T00:17:48;24.10;;;11.80;;
37495;SDS011;23346;52.088;4.746;2023-04-06T00:20:14;26.83;;;11.87;;
37495;SDS011;23346;52.088;4.746;2023-04-06T00:22:40;21.17;;;12.13;;
37495;SDS011;23346;52.088;4.746;2023-04-06T00:25:06;20.17;;;10.10;;
37495;SDS011;23346;52.088;4.746;2023-04-06T00:27:33;17.10;;;9.37;;
37495;SDS011;23346;52.088;4.746;2023-04-06T00:29:58;21.97;;;11.07;;
37495;SDS011;23346;52.088;4.746;2023-04-06T00:32:25;20.73;;;10.13;;
37495;SDS011;23346;52.088;4.746;2023-04-06T00:34:51;19.43;;;10.10;;
37495;SDS011;23346;52.088;4.746;2023-04-06T00:37:17;18.13;;;9.10;;
37495;SDS011;23346;52.088;4.746;2023-04-06T00:39:44;20.00;;;9.73;;
37495;SDS011;23346;52.088;4.746;2023-04-06T00:42:12;20.47;;;9.27;;
37495;SDS011;23346;52.088;4.746;2023-04-06T00:44:39;19.23;;;9.57;;
37495;SDS011;23346;52.088;4.746;2023-04-06T00:47:05;15.63;;;9.40;;
37495;SDS011;23346;52.088;4.746;2023-04-06T00:49:32;19.40;;;8.60;;
37495;SDS011;23346;52.088;4.746;2023-04-06T00:51:58;16.33;;;9.20;;
37495;SDS011;23346;52.088;4.746;2023-04-06T00:54:23;15.87;;;8.73;;
37495;SDS011;23346;52.088;4.746;2023-04-06T00:56:49;15.93;;;8.60;;
37495;SDS011;23346;52.088;4.746;2023-04-06T00:59:15;17.40;;;9.27;;
37495;SDS011;23346;52.088;4.746;2023-04-06T01:01:41;17.03;;;8.80;;
37495;SDS011;23346;52.088;4.746;2023-04-06T01:04:07;15.23;;;8.13;;
37495;SDS011;23346;52.088;4.746;2023-04-06T01:06:33;15.17;;;8.50;;
37495;SDS011;23346;52.088;4.746;2023-04-06T01:08:59;13.47;;;7.57;;
37495;SDS011;23346;52.088;4.746;2023-04-06T01:11:25;18.60;;;8.47;;
37495;SDS011;23346;52.088;4.746;2023-04-06T01:13:52;17.53;;;9.00;;
37495;SDS011;23346;52.088;4.746;2023-04-06T01:16:18;21.13;;;8.13;;
37495;SDS011;23346;52.088;4.746;2023-04-06T01:18:44;18.57;;;8.07;;
37495;SDS011;23346;52.088;4.746;2023-04-06T01:21:10;18.33;;;8.83;;
37495;SDS011;23346;52.088;4.746;2023-04-06T01:23:44;17.73;;;8.87;;
37495;SDS011;23346;52.088;4.746;2023-04-06T01:26:10;16.93;;;8.60;;
37495;SDS011;23346;52.088;4.746;2023-04-06T01:28:36;15.30;;;8.23;;
37495;SDS011;23346;52.088;4.746;2023-04-06T01:31:02;14.43;;;8.03;;
37495;SDS011;23346;52.088;4.746;2023-04-06T01:33:28;14.43;;;7.50;;
37495;SDS011;23346;52.088;4.746;2023-04-06T01:35:55;16.50;;;8.00;;
37495;SDS011;23346;52.088;4.746;2023-04-06T01:38:21;17.20;;;8.60;;
37495;SDS011;23346;52.088;4.746;2023-04-06T01:40:46;14.93;;;7.40;;
37495;SDS011;23346;52.088;4.746;2023-04-06T01:43:12;13.90;;;7.67;;
37495;SDS011;23346;52.088;4.746;2023-04-06T01:45:38;16.20;;;6.27;;
37495;SDS011;23346;52.088;4.746;2023-04-06T01:48:05;16.03;;;8.57;;
37495;SDS011;23346;52.088;4.746;2023-04-06T01:50:31;16.17;;;8.40;;
37495;SDS011;23346;52.088;4.746;2023-04-06T01:52:57;19.47;;;8.50;;
37495;SDS011;23346;52.088;4.746;2023-04-06T01:55:23;17.40;;;8.17;;
37495;SDS011;23346;52.088;4.746;2023-04-06T01:57:49;17.10;;;8.43;;
37495;SDS011;23346;52.088;4.746;2023-04-06T02:00:15;16.63;;;8.40;;
37495;SDS011;23346;52.088;4.746;2023-04-06T02:02:41;17.57;;;8.53;;
37495;SDS011;23346;52.088;4.746;2023-04-06T02:05:07;16.33;;;8.87;;
37495;SDS011;23346;52.088;4.746;2023-04-06T02:07:34;17.93;;;8.20;;
37495;SDS011;23346;52.088;4.746;2023-04-06T02:10:00;16.73;;;8.03;;
37495;SDS011;23346;52.088;4.746;2023-04-06T02:12:26;17.37;;;7.80;;
37495;SDS011;23346;52.088;4.746;2023-04-06T02:14:52;20.90;;;8.67;;
37495;SDS011;23346;52.088;4.746;2023-04-06T02:17:18;16.90;;;7.93;;
37495;SDS011;23346;52.088;4.746;2023-04-06T02:19:44;15.27;;;8.47;;
37495;SDS011;23346;52.088;4.746;2023-04-06T02:22:10;16.90;;;8.83;;
37495;SDS011;23346;52.088;4.746;2023-04-06T02:24:36;16.93;;;9.13;;
37495;SDS011;23346;52.088;4.746;2023-04-06T02:27:02;16.17;;;8.30;;
37495;SDS011;23346;52.088;4.746;2023-04-06T02:29:28;14.70;;;7.73;;
37495;SDS011;23346;52.088;4.746;2023-04-06T02:31:54;18.27;;;8.57;;
37495;SDS011;23346;52.088;4.746;2023-04-06T02:34:20;15.17;;;8.17;;
37495;SDS011;23346;52.088;4.746;2023-04-06T02:36:46;15.33;;;8.53;;
37495;SDS011;23346;52.088;4.746;2023-04-06T02:39:12;16.03;;;7.63;;
37495;SDS011;23346;52.088;4.746;2023-04-06T02:41:39;15.37;;;8.47;;
37495;SDS011;23346;52.088;4.746;2023-04-06T02:44:08;12.77;;;7.47;;
37495;SDS011;23346;52.088;4.746;2023-04-06T02:46:34;19.57;;;8.73;;
37495;SDS011;23346;52.088;4.746;2023-04-06T02:49:00;16.27;;;8.63;;
37495;SDS011;23346;52.088;4.746;2023-04-06T02:51:26;17.63;;;8.60;;
37495;SDS011;23346;52.088;4.746;2023-04-06T02:53:53;20.43;;;9.50;;
37495;SDS011;23346;52.088;4.746;2023-04-06T02:56:19;19.00;;;8.17;;
37495;SDS011;23346;52.088;4.746;2023-04-06T02:58:46;18.10;;;8.40;;
37495;SDS011;23346;52.088;4.746;2023-04-06T03:01:12;19.07;;;8.97;;
37495;SDS011;23346;52.088;4.746;2023-04-06T03:03:38;19.17;;;9.87;;
37495;SDS011;23346;52.088;4.746;2023-04-06T03:06:04;14.97;;;8.03;;
37495;SDS011;23346;52.088;4.746;2023-04-06T03:08:30;12.23;;;8.40;;
37495;SDS011;23346;52.088;4.746;2023-04-06T03:10:56;16.67;;;8.43;;
37495;SDS011;23346;52.088;4.746;2023-04-06T03:13:22;17.63;;;9.13;;
37495;SDS011;23346;52.088;4.746;2023-04-06T03:15:48;20.43;;;9.97;;
37495;SDS011;23346;52.088;4.746;2023-04-06T03:18:14;16.37;;;9.20;;
37495;SDS011;23346;52.088;4.746;2023-04-06T03:20:40;18.13;;;9.47;;
37495;SDS011;23346;52.088;4.746;2023-04-06T03:23:06;16.47;;;8.43;;
37495;SDS011;23346;52.088;4.746;2023-04-06T03:25:32;19.80;;;8.87;;
37495;SDS011;23346;52.088;4.746;2023-04-06T03:27:58;18.77;;;9.20;;
37495;SDS011;23346;52.088;4.746;2023-04-06T03:30:24;17.43;;;8.67;;
37495;SDS011;23346;52.088;4.746;2023-04-06T03:32:51;16.83;;;8.50;;
37495;SDS011;23346;52.088;4.746;2023-04-06T03:35:17;19.30;;;10.80;;
37495;SDS011;23346;52.088;4.746;2023-04-06T03:37:43;20.47;;;9.47;;
37495;SDS011;23346;52.088;4.746;2023-04-06T03:40:10;16.87;;;9.20;;
37495;SDS011;23346;52.088;4.746;2023-04-06T03:42:36;14.60;;;8.60;;
37495;SDS011;23346;52.088;4.746;2023-04-06T03:45:02;18.90;;;9.33;;
37495;SDS011;23346;52.088;4.746;2023-04-06T03:47:28;22.63;;;9.60;;
37495;SDS011;23346;52.088;4.746;2023-04-06T03:49:54;27.00;;;10.73;;
37495;SDS011;23346;52.088;4.746;2023-04-06T03:52:20;18.57;;;9.33;;
37495;SDS011;23346;52.088;4.746;2023-04-06T03:54:48;18.93;;;8.93;;
37495;SDS011;23346;52.088;4.746;2023-04-06T03:57:14;15.87;;;8.97;;
37495;SDS011;23346;52.088;4.746;2023-04-06T03:59:40;20.20;;;9.70;;
37495;SDS011;23346;52.088;4.746;2023-04-06T04:02:06;18.80;;;10.37;;
37495;SDS011;23346;52.088;4.746;2023-04-06T04:04:32;23.30;;;11.13;;
37495;SDS011;23346;52.088;4.746;2023-04-06T04:06:57;21.03;;;9.47;;
37495;SDS011;23346;52.088;4.746;2023-04-06T04:09:23;19.20;;;10.00;;
37495;SDS011;23346;52.088;4.746;2023-04-06T04:11:49;16.77;;;9.33;;
37495;SDS011;23346;52.088;4.746;2023-04-06T04:14:15;19.60;;;10.10;;
37495;SDS011;23346;52.088;4.746;2023-04-06T04:16:41;23.33;;;10.50;;
37495;SDS011;23346;52.088;4.746;2023-04-06T04:19:07;23.63;;;11.07;;
37495;SDS011;23346;52.088;4.746;2023-04-06T04:21:41;21.07;;;10.60;;
37495;SDS011;23346;52.088;4.746;2023-04-06T04:24:07;21.27;;;10.90;;
37495;SDS011;23346;52.088;4.746;2023-04-06T04:26:33;23.07;;;10.77;;
37495;SDS011;23346;52.088;4.746;2023-04-06T04:28:59;20.60;;;10.37;;
37495;SDS011;23346;52.088;4.746;2023-04-06T04:31:25;23.50;;;10.50;;
37495;SDS011;23346;52.088;4.746;2023-04-06T04:33:51;24.07;;;10.93;;
37495;SDS011;23346;52.088;4.746;2023-04-06T04:36:17;24.53;;;11.33;;
37495;SDS011;23346;52.088;4.746;2023-04-06T04:38:43;26.43;;;11.07;;
37495;SDS011;23346;52.088;4.746;2023-04-06T04:41:09;19.33;;;10.63;;
37495;SDS011;23346;52.088;4.746;2023-04-06T04:43:35;20.30;;;10.30;;
37495;SDS011;23346;52.088;4.746;2023-04-06T04:46:01;21.80;;;10.47;;
37495;SDS011;23346;52.088;4.746;2023-04-06T04:48:28;19.17;;;10.17;;
37495;SDS011;23346;52.088;4.746;2023-04-06T04:50:54;20.53;;;10.77;;
37495;SDS011;23346;52.088;4.746;2023-04-06T04:53:20;20.50;;;9.60;;
37495;SDS011;23346;52.088;4.746;2023-04-06T04:55:46;24.83;;;11.23;;
37495;SDS011;23346;52.088;4.746;2023-04-06T04:58:12;19.37;;;10.57;;
37495;SDS011;23346;52.088;4.746;2023-04-06T05:00:43;21.00;;;10.63;;
37495;SDS011;23346;52.088;4.746;2023-04-06T05:03:11;23.90;;;11.30;;
37495;SDS011;23346;52.088;4.746;2023-04-06T05:05:39;26.73;;;12.40;;
37495;SDS011;23346;52.088;4.746;2023-04-06T05:08:05;23.83;;;10.43;;
37495;SDS011;23346;52.088;4.746;2023-04-06T05:10:31;24.20;;;11.77;;
37495;SDS011;23346;52.088;4.746;2023-04-06T05:12:58;25.37;;;11.00;;
37495;SDS011;23346;52.088;4.746;2023-04-06T05:15:24;27.03;;;13.23;;
37495;SDS011;23346;52.088;4.746;2023-04-06T05:17:50;23.00;;;11.03;;
37495;SDS011;23346;52.088;4.746;2023-04-06T05:20:16;19.93;;;10.30;;
37495;SDS011;23346;52.088;4.746;2023-04-06T05:22:42;18.70;;;10.80;;
37495;SDS011;23346;52.088;4.746;2023-04-06T05:25:08;23.60;;;11.77;;
37495;SDS011;23346;52.088;4.746;2023-04-06T05:27:34;26.50;;;11.40;;
37495;SDS011;23346;52.088;4.746;2023-04-06T05:30:00;26.57;;;12.17;;
37495;SDS011;23346;52.088;4.746;2023-04-06T05:32:27;22.13;;;11.27;;
37495;SDS011;23346;52.088;4.746;2023-04-06T05:34:53;23.37;;;12.00;;
37495;SDS011;23346;52.088;4.746;2023-04-06T05:37:19;26.90;;;12.23;;
37495;SDS011;23346;52.088;4.746;2023-04-06T05:39:45;27.73;;;11.87;;
37495;SDS011;23346;52.088;4.746;2023-04-06T05:42:11;25.07;;;11.47;;
37495;SDS011;23346;52.088;4.746;2023-04-06T05:44:37;28.63;;;11.73;;
37495;SDS011;23346;52.088;4.746;2023-04-06T05:47:03;26.20;;;11.63;;
37495;SDS011;23346;52.088;4.746;2023-04-06T05:49:29;21.60;;;11.10;;
37495;SDS011;23346;52.088;4.746;2023-04-06T05:51:55;28.23;;;11.93;;
37495;SDS011;23346;52.088;4.746;2023-04-06T05:54:21;26.43;;;11.97;;
37495;SDS011;23346;52.088;4.746;2023-04-06T05:56:47;21.53;;;9.97;;
37495;SDS011;23346;52.088;4.746;2023-04-06T05:59:13;20.73;;;10.33;;
37495;SDS011;23346;52.088;4.746;2023-04-06T06:01:40;22.60;;;12.03;;
37495;SDS011;23346;52.088;4.746;2023-04-06T06:04:06;29.10;;;12.80;;
37495;SDS011;23346;52.088;4.746;2023-04-06T06:06:32;27.40;;;11.67;;
37495;SDS011;23346;52.088;4.746;2023-04-06T06:08:58;23.30;;;11.37;;
37495;SDS011;23346;52.088;4.746;2023-04-06T06:11:25;18.23;;;10.57;;
37495;SDS011;23346;52.088;4.746;2023-04-06T06:13:51;22.53;;;11.00;;
37495;SDS011;23346;52.088;4.746;2023-04-06T06:16:18;22.57;;;11.50;;
37495;SDS011;23346;52.088;4.746;2023-04-06T06:18:44;28.93;;;12.60;;
37495;SDS011;23346;52.088;4.746;2023-04-06T06:21:10;28.77;;;11.83;;
37495;SDS011;23346;52.088;4.746;2023-04-06T06:23:39;27.47;;;12.70;;
37495;SDS011;23346;52.088;4.746;2023-04-06T06:26:05;22.90;;;12.10;;
37495;SDS011;23346;52.088;4.746;2023-04-06T06:28:31;28.87;;;11.73;;
37495;SDS011;23346;52.088;4.746;2023-04-06T06:30:57;28.57;;;11.87;;
37495;SDS011;23346;52.088;4.746;2023-04-06T06:33:23;23.30;;;11.73;;
37495;SDS011;23346;52.088;4.746;2023-04-06T06:35:50;27.33;;;12.53;;
37495;SDS011;23346;52.088;4.746;2023-04-06T06:38:17;29.60;;;11.40;;
37495;SDS011;23346;52.088;4.746;2023-04-06T06:40:43;24.40;;;11.83;;
37495;SDS011;23346;52.088;4.746;2023-04-06T06:43:09;28.30;;;11.40;;
37495;SDS011;23346;52.088;4.746;2023-04-06T06:45:35;22.03;;;11.60;;
37495;SDS011;23346;52.088;4.746;2023-04-06T06:48:01;26.00;;;11.00;;
37495;SDS011;23346;52.088;4.746;2023-04-06T06:50:26;27.60;;;11.33;;
37495;SDS011;23346;52.088;4.746;2023-04-06T06:52:52;25.67;;;12.17;;
37495;SDS011;23346;52.088;4.746;2023-04-06T06:55:18;23.00;;;11.10;;
37495;SDS011;23346;52.088;4.746;2023-04-06T06:57:44;26.33;;;11.93;;
37495;SDS011;23346;52.088;4.746;2023-04-06T07:00:14;27.63;;;11.77;;
37495;SDS011;23346;52.088;4.746;2023-04-06T07:02:40;24.90;;;10.97;;
37495;SDS011;23346;52.088;4.746;2023-04-06T07:05:06;27.30;;;12.00;;
37495;SDS011;23346;52.088;4.746;2023-04-06T07:07:32;25.90;;;11.67;;
37495;SDS011;23346;52.088;4.746;2023-04-06T07:09:58;23.47;;;11.70;;
37495;SDS011;23346;52.088;4.746;2023-04-06T07:12:24;23.23;;;10.63;;
37495;SDS011;23346;52.088;4.746;2023-04-06T07:14:50;24.23;;;12.37;;
37495;SDS011;23346;52.088;4.746;2023-04-06T07:17:16;29.33;;;12.23;;
37495;SDS011;23346;52.088;4.746;2023-04-06T07:19:42;27.50;;;11.40;;
37495;SDS011;23346;52.088;4.746;2023-04-06T07:22:08;28.17;;;12.43;;
37495;SDS011;23346;52.088;4.746;2023-04-06T07:24:34;23.27;;;12.23;;
37495;SDS011;23346;52.088;4.746;2023-04-06T07:27:00;24.77;;;12.77;;
37495;SDS011;23346;52.088;4.746;2023-04-06T07:29:26;29.10;;;13.87;;
37495;SDS011;23346;52.088;4.746;2023-04-06T07:31:53;25.20;;;12.23;;
37495;SDS011;23346;52.088;4.746;2023-04-06T07:34:19;27.43;;;13.53;;
37495;SDS011;23346;52.088;4.746;2023-04-06T07:36:45;28.27;;;14.40;;
37495;SDS011;23346;52.088;4.746;2023-04-06T07:39:11;30.13;;;13.33;;
37495;SDS011;23346;52.088;4.746;2023-04-06T07:41:37;25.77;;;11.93;;
37495;SDS011;23346;52.088;4.746;2023-04-06T07:44:03;24.67;;;11.83;;
37495;SDS011;23346;52.088;4.746;2023-04-06T07:46:29;27.60;;;12.93;;
37495;SDS011;23346;52.088;4.746;2023-04-06T07:48:56;25.40;;;11.97;;
37495;SDS011;23346;52.088;4.746;2023-04-06T07:51:22;24.30;;;11.97;;
37495;SDS011;23346;52.088;4.746;2023-04-06T07:53:49;26.00;;;12.80;;
37495;SDS011;23346;52.088;4.746;2023-04-06T07:56:16;28.87;;;13.23;;
37495;SDS011;23346;52.088;4.746;2023-04-06T07:58:42;26.90;;;12.80;;
37495;SDS011;23346;52.088;4.746;2023-04-06T08:01:08;23.70;;;13.20;;
37495;SDS011;23346;52.088;4.746;2023-04-06T08:03:34;24.87;;;14.13;;
37495;SDS011;23346;52.088;4.746;2023-04-06T08:06:00;28.33;;;13.17;;
37495;SDS011;23346;52.088;4.746;2023-04-06T08:08:26;28.27;;;14.37;;
37495;SDS011;23346;52.088;4.746;2023-04-06T08:10:52;27.63;;;14.77;;
37495;SDS011;23346;52.088;4.746;2023-04-06T08:13:18;28.17;;;13.93;;
37495;SDS011;23346;52.088;4.746;2023-04-06T08:15:44;36.13;;;14.70;;
37495;SDS011;23346;52.088;4.746;2023-04-06T08:18:10;30.30;;;14.40;;
37495;SDS011;23346;52.088;4.746;2023-04-06T08:20:36;26.50;;;15.17;;
37495;SDS011;23346;52.088;4.746;2023-04-06T08:23:02;31.33;;;15.63;;
37495;SDS011;23346;52.088;4.746;2023-04-06T08:25:28;34.27;;;14.53;;
37495;SDS011;23346;52.088;4.746;2023-04-06T08:27:54;31.60;;;15.23;;
37495;SDS011;23346;52.088;4.746;2023-04-06T08:30:20;32.10;;;15.57;;
37495;SDS011;23346;52.088;4.746;2023-04-06T08:32:46;36.13;;;16.13;;
37495;SDS011;23346;52.088;4.746;2023-04-06T08:35:12;31.47;;;14.43;;
37495;SDS011;23346;52.088;4.746;2023-04-06T08:37:38;29.33;;;14.53;;
37495;SDS011;23346;52.088;4.746;2023-04-06T08:40:04;34.57;;;16.77;;
37495;SDS011;23346;52.088;4.746;2023-04-06T08:42:33;28.97;;;15.00;;
37495;SDS011;23346;52.088;4.746;2023-04-06T08:45:05;27.80;;;12.50;;
37495;SDS011;23346;52.088;4.746;2023-04-06T08:47:31;31.63;;;14.40;;
37495;SDS011;23346;52.088;4.746;2023-04-06T08:49:57;40.57;;;15.77;;
37495;SDS011;23346;52.088;4.746;2023-04-06T08:52:27;32.83;;;16.17;;
37495;SDS011;23346;52.088;4.746;2023-04-06T08:54:53;33.53;;;15.83;;
37495;SDS011;23346;52.088;4.746;2023-04-06T08:57:19;31.77;;;15.97;;
37495;SDS011;23346;52.088;4.746;2023-04-06T08:59:46;33.93;;;16.73;;
37495;SDS011;23346;52.088;4.746;2023-04-06T09:02:14;30.10;;;15.97;;
37495;SDS011;23346;52.088;4.746;2023-04-06T09:04:42;40.60;;;16.40;;
37495;SDS011;23346;52.088;4.746;2023-04-06T09:07:08;33.90;;;16.47;;
37495;SDS011;23346;52.088;4.746;2023-04-06T09:09:34;29.27;;;15.10;;
37495;SDS011;23346;52.088;4.746;2023-04-06T09:12:00;32.90;;;15.43;;
37495;SDS011;23346;52.088;4.746;2023-04-06T09:14:37;30.63;;;14.70;;
37495;SDS011;23346;52.088;4.746;2023-04-06T09:17:04;29.93;;;13.87;;
37495;SDS011;23346;52.088;4.746;2023-04-06T09:19:30;32.13;;;15.37;;
37495;SDS011;23346;52.088;4.746;2023-04-06T09:22:05;28.80;;;14.23;;
37495;SDS011;23346;52.088;4.746;2023-04-06T09:24:41;33.17;;;15.00;;
37495;SDS011;23346;52.088;4.746;2023-04-06T09:27:07;32.47;;;15.80;;
37495;SDS011;23346;52.088;4.746;2023-04-06T09:29:41;34.57;;;13.77;;
37495;SDS011;23346;52.088;4.746;2023-04-06T09:32:08;31.03;;;13.53;;
37495;SDS011;23346;52.088;4.746;2023-04-06T09:34:40;33.40;;;15.13;;
37495;SDS011;23346;52.088;4.746;2023-04-06T09:37:15;34.13;;;14.70;;
37495;SDS011;23346;52.088;4.746;2023-04-06T09:39:41;31.37;;;12.73;;
37495;SDS011;23346;52.088;4.746;2023-04-06T09:42:08;20.57;;;9.40;;
37495;SDS011;23346;52.088;4.746;2023-04-06T09:44:34;15.30;;;7.43;;
37495;SDS011;23346;52.088;4.746;2023-04-06T09:47:00;14.40;;;5.43;;
37495;SDS011;23346;52.088;4.746;2023-04-06T09:49:27;9.00;;;4.57;;
37495;SDS011;23346;52.088;4.746;2023-04-06T09:51:54;11.50;;;6.10;;
37495;SDS011;23346;52.088;4.746;2023-04-06T09:54:21;13.77;;;6.10;;
37495;SDS011;23346;52.088;4.746;2023-04-06T09:59:15;11.23;;;6.80;;
37495;SDS011;23346;52.088;4.746;2023-04-06T10:01:44;12.30;;;6.40;;
37495;SDS011;23346;52.088;4.746;2023-04-06T10:06:44;11.77;;;6.83;;
37495;SDS011;23346;52.088;4.746;2023-04-06T10:09:12;10.40;;;5.63;;
37495;SDS011;23346;52.088;4.746;2023-04-06T10:11:39;10.73;;;5.63;;
37495;SDS011;23346;52.088;4.746;2023-04-06T10:14:05;9.97;;;5.53;;
37495;SDS011;23346;52.088;4.746;2023-04-06T10:16:31;9.87;;;4.93;;
37495;SDS011;23346;52.088;4.746;2023-04-06T10:19:00;11.47;;;6.17;;
37495;SDS011;23346;52.088;4.746;2023-04-06T10:21:27;8.87;;;5.03;;
37495;SDS011;23346;52.088;4.746;2023-04-06T10:23:57;7.23;;;4.27;;
37495;SDS011;23346;52.088;4.746;2023-04-06T10:26:24;8.83;;;4.83;;
37495;SDS011;23346;52.088;4.746;2023-04-06T10:28:51;10.53;;;5.13;;
37495;SDS011;23346;52.088;4.746;2023-04-06T10:31:27;11.33;;;5.40;;
37495;SDS011;23346;52.088;4.746;2023-04-06T10:33:54;11.23;;;5.70;;
37495;SDS011;23346;52.088;4.746;2023-04-06T10:36:24;9.93;;;5.27;;
37495;SDS011;23346;52.088;4.746;2023-04-06T10:38:55;8.30;;;5.27;;
37495;SDS011;23346;52.088;4.746;2023-04-06T10:41:22;10.97;;;6.27;;
37495;SDS011;23346;52.088;4.746;2023-04-06T10:43:54;9.93;;;5.93;;
37495;SDS011;23346;52.088;4.746;2023-04-06T10:46:28;9.37;;;5.33;;
37495;SDS011;23346;52.088;4.746;2023-04-06T10:48:54;11.40;;;6.40;;
37495;SDS011;23346;52.088;4.746;2023-04-06T10:51:24;11.20;;;6.23;;
37495;SDS011;23346;52.088;4.746;2023-04-06T10:53:52;9.30;;;5.63;;
37495;SDS011;23346;52.088;4.746;2023-04-06T10:56:20;10.60;;;4.87;;
37495;SDS011;23346;52.088;4.746;2023-04-06T10:58:47;21.97;;;6.30;;
37495;SDS011;23346;52.088;4.746;2023-04-06T11:01:17;11.40;;;5.17;;
37495;SDS011;23346;52.088;4.746;2023-04-06T11:03:46;12.23;;;5.73;;
37495;SDS011;23346;52.088;4.746;2023-04-06T11:06:19;10.07;;;5.37;;
37495;SDS011;23346;52.088;4.746;2023-04-06T11:08:45;10.63;;;6.30;;
37495;SDS011;23346;52.088;4.746;2023-04-06T11:11:12;9.93;;;7.07;;
37495;SDS011;23346;52.088;4.746;2023-04-06T11:13:48;13.00;;;7.13;;
37495;SDS011;23346;52.088;4.746;2023-04-06T11:16:18;12.97;;;6.33;;
37495;SDS011;23346;52.088;4.746;2023-04-06T11:21:13;13.40;;;7.07;;
37495;SDS011;23346;52.088;4.746;2023-04-06T11:23:39;11.50;;;7.30;;
37495;SDS011;23346;52.088;4.746;2023-04-06T11:26:09;10.60;;;6.27;;
37495;SDS011;23346;52.088;4.746;2023-04-06T11:28:35;13.47;;;7.23;;
37495;SDS011;23346;52.088;4.746;2023-04-06T11:31:01;11.40;;;6.17;;
37495;SDS011;23346;52.088;4.746;2023-04-06T11:33:27;11.90;;;7.10;;
37495;SDS011;23346;52.088;4.746;2023-04-06T11:35:56;12.83;;;7.90;;
37495;SDS011;23346;52.088;4.746;2023-04-06T11:38:22;13.63;;;7.80;;
37495;SDS011;23346;52.088;4.746;2023-04-06T11:40:52;16.23;;;8.40;;
37495;SDS011;23346;52.088;4.746;2023-04-06T11:43:18;12.30;;;7.07;;
37495;SDS011;23346;52.088;4.746;2023-04-06T11:45:51;13.23;;;7.77;;
37495;SDS011;23346;52.088;4.746;2023-04-06T11:48:25;15.23;;;7.83;;
37495;SDS011;23346;52.088;4.746;2023-04-06T11:50:55;12.50;;;6.53;;
37495;SDS011;23346;52.088;4.746;2023-04-06T11:53:21;1.43;;;1.37;;
37495;SDS011;23346;52.088;4.746;2023-04-06T11:55:47;0.40;;;0.40;;
37495;SDS011;23346;52.088;4.746;2023-04-06T11:58:13;1.70;;;1.60;;
37495;SDS011;23346;52.088;4.746;2023-04-06T12:00:39;0.57;;;0.57;;
37495;SDS011;23346;52.088;4.746;2023-04-06T12:03:09;2.77;;;1.47;;
37495;SDS011;23346;52.088;4.746;2023-04-06T12:05:35;1.60;;;1.43;;
37495;SDS011;23346;52.088;4.746;2023-04-06T12:08:01;1.40;;;0.83;;
37495;SDS011;23346;52.088;4.746;2023-04-06T12:10:27;0.90;;;0.90;;
37495;SDS011;23346;52.088;4.746;2023-04-06T12:12:53;1.13;;;1.13;;
37495;SDS011;23346;52.088;4.746;2023-04-06T12:15:19;1.43;;;1.40;;
37495;SDS011;23346;52.088;4.746;2023-04-06T12:17:45;0.57;;;0.57;;
37495;SDS011;23346;52.088;4.746;2023-04-06T12:20:11;4.87;;;1.70;;
37495;SDS011;23346;52.088;4.746;2023-04-06T12:22:38;2.50;;;1.53;;
37495;SDS011;23346;52.088;4.746;2023-04-06T12:25:04;1.87;;;1.27;;
37495;SDS011;23346;52.088;4.746;2023-04-06T12:27:31;1.10;;;1.00;;
37495;SDS011;23346;52.088;4.746;2023-04-06T12:29:57;0.60;;;0.60;;
37495;SDS011;23346;52.088;4.746;2023-04-06T12:32:23;0.80;;;0.80;;
37495;SDS011;23346;52.088;4.746;2023-04-06T12:34:50;2.77;;;1.23;;
37495;SDS011;23346;52.088;4.746;2023-04-06T12:37:16;0.87;;;0.87;;
37495;SDS011;23346;52.088;4.746;2023-04-06T12:39:42;0.30;;;0.30;;
37495;SDS011;23346;52.088;4.746;2023-04-06T12:42:09;0.97;;;0.97;;
37495;SDS011;23346;52.088;4.746;2023-04-06T12:44:35;1.00;;;1.00;;
37495;SDS011;23346;52.088;4.746;2023-04-06T12:47:01;0.87;;;0.83;;
37495;SDS011;23346;52.088;4.746;2023-04-06T12:49:27;2.97;;;1.33;;
37495;SDS011;23346;52.088;4.746;2023-04-06T12:51:53;1.10;;;1.10;;
37495;SDS011;23346;52.088;4.746;2023-04-06T12:54:20;1.57;;;1.13;;
37495;SDS011;23346;52.088;4.746;2023-04-06T12:56:46;1.40;;;1.37;;
37495;SDS011;23346;52.088;4.746;2023-04-06T12:59:12;1.17;;;1.17;;
37495;SDS011;23346;52.088;4.746;2023-04-06T13:01:38;1.20;;;1.17;;
37495;SDS011;23346;52.088;4.746;2023-04-06T13:04:04;1.03;;;1.03;;
37495;SDS011;23346;52.088;4.746;2023-04-06T13:06:30;2.87;;;2.10;;
37495;SDS011;23346;52.088;4.746;2023-04-06T13:08:56;2.43;;;1.60;;
37495;SDS011;23346;52.088;4.746;2023-04-06T13:11:22;4.53;;;2.13;;
37495;SDS011;23346;52.088;4.746;2023-04-06T13:13:49;1.80;;;1.70;;
37495;SDS011;23346;52.088;4.746;2023-04-06T13:16:15;0.80;;;0.80;;
37495;SDS011;23346;52.088;4.746;2023-04-06T13:18:41;0.47;;;0.47;;
37495;SDS011;23346;52.088;4.746;2023-04-06T13:21:07;3.50;;;1.60;;
37495;SDS011;23346;52.088;4.746;2023-04-06T13:23:33;1.53;;;1.43;;
37495;SDS011;23346;52.088;4.746;2023-04-06T13:26:04;1.47;;;1.17;;
37495;SDS011;23346;52.088;4.746;2023-04-06T13:28:30;6.13;;;1.07;;
37495;SDS011;23346;52.088;4.746;2023-04-06T13:30:57;2.37;;;1.17;;
37495;SDS011;23346;52.088;4.746;2023-04-06T13:33:23;0.93;;;0.93;;
37495;SDS011;23346;52.088;4.746;2023-04-06T13:35:50;0.90;;;0.90;;
37495;SDS011;23346;52.088;4.746;2023-04-06T13:38:16;0.93;;;0.60;;
37495;SDS011;23346;52.088;4.746;2023-04-06T13:40:42;1.13;;;1.00;;
37495;SDS011;23346;52.088;4.746;2023-04-06T13:43:08;0.70;;;0.70;;
37495;SDS011;23346;52.088;4.746;2023-04-06T13:45:34;1.03;;;1.03;;
37495;SDS011;23346;52.088;4.746;2023-04-06T13:48:00;0.90;;;0.83;;
37495;SDS011;23346;52.088;4.746;2023-04-06T13:50:26;1.33;;;0.93;;
37495;SDS011;23346;52.088;4.746;2023-04-06T13:52:52;3.13;;;2.00;;
37495;SDS011;23346;52.088;4.746;2023-04-06T13:55:18;1.53;;;1.43;;
37495;SDS011;23346;52.088;4.746;2023-04-06T13:57:44;1.57;;;1.10;;
37495;SDS011;23346;52.088;4.746;2023-04-06T14:00:11;0.50;;;0.50;;
37495;SDS011;23346;52.088;4.746;2023-04-06T14:02:38;1.00;;;1.00;;
37495;SDS011;23346;52.088;4.746;2023-04-06T14:05:04;2.63;;;0.90;;
37495;SDS011;23346;52.088;4.746;2023-04-06T14:07:30;0.80;;;0.80;;
37495;SDS011;23346;52.088;4.746;2023-04-06T14:09:56;4.97;;;1.37;;
37495;SDS011;23346;52.088;4.746;2023-04-06T14:12:22;0.40;;;0.40;;
37495;SDS011;23346;52.088;4.746;2023-04-06T14:14:48;1.13;;;1.13;;
37495;SDS011;23346;52.088;4.746;2023-04-06T14:17:14;0.80;;;0.80;;
37495;SDS011;23346;52.088;4.746;2023-04-06T14:19:40;1.60;;;1.50;;
37495;SDS011;23346;52.088;4.746;2023-04-06T14:22:07;0.30;;;0.30;;
37495;SDS011;23346;52.088;4.746;2023-04-06T14:24:34;0.63;;;0.63;;
37495;SDS011;23346;52.088;4.746;2023-04-06T14:27:00;1.23;;;1.00;;
37495;SDS011;23346;52.088;4.746;2023-04-06T14:29:27;0.97;;;0.97;;
37495;SDS011;23346;52.088;4.746;2023-04-06T14:31:53;0.80;;;0.80;;
37495;SDS011;23346;52.088;4.746;2023-04-06T14:34:24;0.73;;;0.50;;